Time;durP1;ratioP1;P1;durP2;ratioP2;P2;SDS_P1;SDS_P2;PMS_P1;PMS_P2;Temp;Humidity;BMP_temperature;BMP_pressure;BME280_temperature;BME280_humidity;BME280_pressure;Samples;Min_cycle;Max_cycle;Signal;HPM_P1;HPM_P2
2021/08/31 00:01:51;;;;;;;6.50;2.08;;;;;;;;;;5034976;28;20124;-72
2021/08/31 00:04:17;;;;;;;5.18;2.00;;;;;;;;;;5032060;28;20021;-72
2021/08/31 00:06:44;;;;;;;3.28;1.83;;;;;;;;;;5049539;28;20047;-72
2021/08/31 00:09:10;;;;;;;6.30;2.25;;;;;;;;;;5034719;28;20089;-71
2021/08/31 00:11:36;;;;;;;3.83;1.90;;;;;;;;;;5036277;28;20033;-72
2021/08/31 00:14:02;;;;;;;3.97;2.05;;;;;;;;;;5034530;28;20489;-72
2021/08/31 00:16:28;;;;;;;3.67;2.10;;;;;;;;;;5036253;28;20064;-72
2021/08/31 00:18:54;;;;;;;3.58;1.90;;;;;;;;;;5036892;28;20025;-73
2021/08/31 00:21:20;;;;;;;4.20;2.20;;;;;;;;;;5035527;28;20017;-72
2021/08/31 00:23:46;;;;;;;4.00;1.90;;;;;;;;;;5033597;28;20030;-73
2021/08/31 00:26:12;;;;;;;4.90;2.05;;;;;;;;;;5034010;28;20168;-73
2021/08/31 00:28:38;;;;;;;4.07;2.25;;;;;;;;;;5035350;28;20037;-73
2021/08/31 00:31:04;;;;;;;5.60;2.00;;;;;;;;;;5036485;28;20119;-73
2021/08/31 00:33:30;;;;;;;2.83;1.70;;;;;;;;;;5036526;28;20029;-73
2021/08/31 00:35:58;;;;;;;7.28;2.35;;;;;;;;;;5047117;28;20457;-72
2021/08/31 00:38:24;;;;;;;4.78;2.15;;;;;;;;;;5030716;28;20041;-72
2021/08/31 00:40:50;;;;;;;3.80;2.10;;;;;;;;;;5036512;28;20043;-73
2021/08/31 00:43:18;;;;;;;3.15;1.80;;;;;;;;;;5033471;28;20037;-73
2021/08/31 00:45:44;;;;;;;3.60;2.00;;;;;;;;;;5033973;28;20013;-73
2021/08/31 00:48:10;;;;;;;3.35;1.80;;;;;;;;;;5034921;28;20087;-73
2021/08/31 00:50:36;;;;;;;4.40;2.10;;;;;;;;;;5036066;28;20066;-73
2021/08/31 00:53:02;;;;;;;5.55;2.00;;;;;;;;;;5035680;28;20029;-73
2021/08/31 00:55:28;;;;;;;5.10;1.90;;;;;;;;;;5035954;28;20360;-72
2021/08/31 00:57:54;;;;;;;3.97;1.90;;;;;;;;;;5035849;28;20048;-73
2021/08/31 01:00:21;;;;;;;5.55;1.70;;;;;;;;;;5033719;28;20025;-72
2021/08/31 01:02:47;;;;;;;6.45;2.33;;;;;;;;;;5036606;28;20468;-72
2021/08/31 01:05:13;;;;;;;4.30;1.80;;;;;;;;;;5025906;28;20032;-73
2021/08/31 01:07:40;;;;;;;3.30;1.77;;;;;;;;;;5033525;28;20029;-73
2021/08/31 01:10:06;;;;;;;5.43;1.90;;;;;;;;;;5039532;28;20226;-73
2021/08/31 01:12:32;;;;;;;4.70;1.75;;;;;;;;;;5026336;28;20029;-73
2021/08/31 01:14:58;;;;;;;5.68;2.25;;;;;;;;;;5033041;28;20043;-73
2021/08/31 01:17:25;;;;;;;4.78;2.30;;;;;;;;;;5035295;28;20037;-73
2021/08/31 01:19:51;;;;;;;3.42;1.63;;;;;;;;;;5035248;28;20033;-73
2021/08/31 01:22:17;;;;;;;3.92;1.80;;;;;;;;;;5040459;28;20140;-73
2021/08/31 01:24:44;;;;;;;4.32;2.10;;;;;;;;;;5035445;28;20025;-73
2021/08/31 01:27:10;;;;;;;4.15;1.80;;;;;;;;;;5047933;28;20067;-72
2021/08/31 01:29:37;;;;;;;6.22;1.88;;;;;;;;;;5033225;28;20057;-72
2021/08/31 01:32:03;;;;;;;3.38;1.65;;;;;;;;;;5035442;28;20101;-73
2021/08/31 01:34:29;;;;;;;6.60;2.10;;;;;;;;;;5035447;28;20030;-73
2021/08/31 01:36:56;;;;;;;4.45;2.13;;;;;;;;;;5035306;28;20040;-72
2021/08/31 01:39:22;;;;;;;2.92;1.73;;;;;;;;;;5033932;28;20047;-72
2021/08/31 01:41:48;;;;;;;4.90;1.70;;;;;;;;;;5035647;28;20029;-73
2021/08/31 01:44:14;;;;;;;6.13;2.00;;;;;;;;;;5035146;28;20391;-73
2021/08/31 01:46:40;;;;;;;4.90;1.90;;;;;;;;;;5033517;28;20036;-73
2021/08/31 01:49:06;;;;;;;4.20;1.70;;;;;;;;;;5035131;28;20022;-73
2021/08/31 01:51:32;;;;;;;4.18;2.08;;;;;;;;;;5039871;28;20029;-72
2021/08/31 01:53:59;;;;;;;5.88;2.15;;;;;;;;;;5032407;28;20363;-71
2021/08/31 01:56:25;;;;;;;5.35;2.17;;;;;;;;;;5035226;28;20057;-71
2021/08/31 01:58:51;;;;;;;4.90;1.95;;;;;;;;;;5034917;28;20076;-74
2021/08/31 02:01:17;;;;;;;4.38;1.73;;;;;;;;;;5039379;28;20026;-71
2021/08/31 02:03:43;;;;;;;4.43;1.88;;;;;;;;;;5034639;28;20025;-71
2021/08/31 02:06:09;;;;;;;5.47;1.92;;;;;;;;;;5032907;28;20109;-71
2021/08/31 02:08:35;;;;;;;4.47;1.80;;;;;;;;;;5034849;28;20038;-71
2021/08/31 02:11:01;;;;;;;3.15;1.60;;;;;;;;;;5039941;28;20146;-71
2021/08/31 02:13:27;;;;;;;9.13;1.77;;;;;;;;;;5042177;28;20026;-71
2021/08/31 02:15:53;;;;;;;5.30;1.98;;;;;;;;;;5034382;28;20018;-71
2021/08/31 02:18:19;;;;;;;3.30;1.60;;;;;;;;;;5032987;28;20052;-61
2021/08/31 02:20:45;;;;;;;4.82;1.80;;;;;;;;;;5035799;28;20020;-63
2021/08/31 02:23:11;;;;;;;3.25;1.73;;;;;;;;;;5036090;28;20059;-61
2021/08/31 02:25:37;;;;;;;3.20;1.70;;;;;;;;;;5038175;28;20026;-62
2021/08/31 02:28:04;;;;;;;3.72;1.90;;;;;;;;;;5033704;28;20049;-61
2021/08/31 02:30:30;;;;;;;3.90;1.88;;;;;;;;;;5033486;28;20030;-62
2021/08/31 02:33:00;;;;;;;5.22;2.13;;;;;;;;;;5032037;28;20021;-62
2021/08/31 02:35:26;;;;;;;4.25;1.98;;;;;;;;;;5034567;28;20087;-62
2021/08/31 02:37:52;;;;;;;4.43;2.13;;;;;;;;;;5033853;28;20037;-62
2021/08/31 02:40:18;;;;;;;4.15;2.05;;;;;;;;;;5034359;28;20109;-62
2021/08/31 02:42:44;;;;;;;4.68;2.10;;;;;;;;;;5046825;28;20523;-62
2021/08/31 02:45:10;;;;;;;3.90;2.08;;;;;;;;;;5031784;28;20112;-63
2021/08/31 02:47:36;;;;;;;3.20;1.85;;;;;;;;;;5033915;28;20037;-62
2021/08/31 02:50:03;;;;;;;3.92;1.90;;;;;;;;;;5034068;28;20113;-62
2021/08/31 02:52:29;;;;;;;3.30;1.83;;;;;;;;;;5038712;28;20072;-62
2021/08/31 02:54:55;;;;;;;5.57;1.85;;;;;;;;;;5033612;28;20049;-63
2021/08/31 02:57:21;;;;;;;9.27;2.03;;;;;;;;;;5032783;28;20516;-63
2021/08/31 02:59:48;;;;;;;3.60;1.55;;;;;;;;;;5031760;28;20037;-63
2021/08/31 03:02:14;;;;;;;3.92;2.10;;;;;;;;;;5033185;28;20079;-63
2021/08/31 03:04:43;;;;;;;5.20;2.33;;;;;;;;;;5032285;28;20033;-62
2021/08/31 03:07:11;;;;;;;5.82;2.13;;;;;;;;;;5033791;28;20040;-62
2021/08/31 03:09:37;;;;;;;3.05;1.80;;;;;;;;;;5033375;28;20025;-62
2021/08/31 03:12:03;;;;;;;3.22;1.85;;;;;;;;;;5044772;28;20033;-62
2021/08/31 03:14:30;;;;;;;8.15;2.03;;;;;;;;;;5033202;28;20594;-62
2021/08/31 03:16:56;;;;;;;4.60;2.00;;;;;;;;;;5033156;28;20884;-62
2021/08/31 03:19:24;;;;;;;4.47;2.25;;;;;;;;;;5033778;28;20104;-62
2021/08/31 03:21:51;;;;;;;4.78;2.17;;;;;;;;;;5038649;28;20078;-63
2021/08/31 03:24:17;;;;;;;4.45;2.00;;;;;;;;;;5031519;28;20481;-62
2021/08/31 03:26:43;;;;;;;6.53;2.33;;;;;;;;;;5031404;28;20053;-63
2021/08/31 03:29:09;;;;;;;3.95;2.10;;;;;;;;;;5032863;28;20444;-62
2021/08/31 03:31:35;;;;;;;5.00;2.00;;;;;;;;;;5032716;28;20029;-62
2021/08/31 03:34:01;;;;;;;5.25;2.13;;;;;;;;;;5033531;28;20075;-62
2021/08/31 03:36:27;;;;;;;7.18;2.05;;;;;;;;;;5031756;28;20479;-62
2021/08/31 03:38:53;;;;;;;4.03;2.10;;;;;;;;;;5031229;28;20021;-62
2021/08/31 03:41:19;;;;;;;4.95;2.00;;;;;;;;;;5044948;28;20376;-62
2021/08/31 03:43:46;;;;;;;4.38;2.03;;;;;;;;;;5043700;28;20075;-62
2021/08/31 03:46:12;;;;;;;5.25;2.00;;;;;;;;;;5039226;28;20423;-62
2021/08/31 03:48:38;;;;;;;4.20;1.85;;;;;;;;;;5039813;28;20027;-52
2021/08/31 03:51:04;;;;;;;5.38;2.03;;;;;;;;;;5039998;28;20469;-54
2021/08/31 03:53:30;;;;;;;5.10;2.15;;;;;;;;;;5038005;28;20117;-56
2021/08/31 03:55:56;;;;;;;4.60;2.10;;;;;;;;;;5037571;28;20376;-55
2021/08/31 03:58:22;;;;;;;4.18;1.90;;;;;;;;;;5038005;28;20065;-54
2021/08/31 04:00:48;;;;;;;4.07;1.80;;;;;;;;;;5038904;28;20016;-53
2021/08/31 04:03:14;;;;;;;3.25;1.83;;;;;;;;;;5037285;28;20496;-53
2021/08/31 04:05:40;;;;;;;4.80;2.03;;;;;;;;;;5036662;28;20079;-54
2021/08/31 04:08:06;;;;;;;3.83;2.20;;;;;;;;;;5038113;28;20396;-53
2021/08/31 04:10:32;;;;;;;4.30;1.90;;;;;;;;;;5038710;28;20030;-54
2021/08/31 04:12:58;;;;;;;3.78;2.05;;;;;;;;;;5051528;28;20029;-49
2021/08/31 04:15:24;;;;;;;4.43;1.90;;;;;;;;;;5036917;28;20032;-61
2021/08/31 04:17:50;;;;;;;5.85;2.30;;;;;;;;;;5042179;28;20408;-62
2021/08/31 04:20:16;;;;;;;4.95;2.10;;;;;;;;;;5040312;28;20032;-62
2021/08/31 04:22:42;;;;;;;7.65;2.00;;;;;;;;;;5041214;28;20029;-63
2021/08/31 04:25:08;;;;;;;4.78;2.13;;;;;;;;;;5037260;28;20021;-62
2021/08/31 04:27:34;;;;;;;5.75;2.20;;;;;;;;;;5038826;28;20542;-62
2021/08/31 04:30:01;;;;;;;5.25;2.00;;;;;;;;;;5036930;28;20555;-62
2021/08/31 04:32:27;;;;;;;7.43;2.08;;;;;;;;;;5053867;28;20033;-62
2021/08/31 04:34:56;;;;;;;4.47;2.17;;;;;;;;;;5039404;28;20100;-62
2021/08/31 04:37:22;;;;;;;5.07;2.15;;;;;;;;;;5045002;28;20431;-62
2021/08/31 04:39:48;;;;;;;2.65;1.38;;;;;;;;;;5038570;28;20055;-63
2021/08/31 04:42:14;;;;;;;2.90;1.30;;;;;;;;;;5038946;28;20061;-63
2021/08/31 04:44:40;;;;;;;4.82;1.48;;;;;;;;;;5051973;28;20480;-62
2021/08/31 04:47:06;;;;;;;4.65;1.70;;;;;;;;;;5035586;28;20017;-62
2021/08/31 04:49:32;;;;;;;4.03;1.77;;;;;;;;;;5036368;28;20033;-62
2021/08/31 04:51:58;;;;;;;3.53;1.70;;;;;;;;;;5035621;28;20025;-63
2021/08/31 04:54:24;;;;;;;2.35;1.10;;;;;;;;;;5035054;28;20030;-62
2021/08/31 04:56:50;;;;;;;3.92;1.80;;;;;;;;;;5033942;28;20121;-63
2021/08/31 04:59:16;;;;;;;8.07;1.80;;;;;;;;;;5034651;28;20080;-63
2021/08/31 05:01:43;;;;;;;2.15;1.30;;;;;;;;;;5035458;28;20508;-63
2021/08/31 05:04:09;;;;;;;2.00;0.77;;;;;;;;;;5036031;28;20699;-63
2021/08/31 05:06:35;;;;;;;0.70;0.47;;;;;;;;;;5035981;28;20453;-63
2021/08/31 05:09:01;;;;;;;0.93;0.65;;;;;;;;;;5033635;28;20036;-64
2021/08/31 05:11:27;;;;;;;1.13;0.40;;;;;;;;;;5042076;28;20168;-63
2021/08/31 05:13:53;;;;;;;0.88;0.70;;;;;;;;;;5039982;28;20029;-63
2021/08/31 05:16:19;;;;;;;0.40;0.28;;;;;;;;;;5035543;28;20029;-63
2021/08/31 05:18:46;;;;;;;1.38;0.52;;;;;;;;;;5035816;28;20028;-63
2021/08/31 05:21:12;;;;;;;0.45;0.35;;;;;;;;;;5038698;28;20016;-63
2021/08/31 05:23:38;;;;;;;1.83;1.10;;;;;;;;;;5035411;28;20021;-63
2021/08/31 05:26:04;;;;;;;0.10;0.10;;;;;;;;;;5034397;28;20103;-63
2021/08/31 05:28:30;;;;;;;2.30;0.65;;;;;;;;;;5035729;28;20037;-63
2021/08/31 05:30:56;;;;;;;0.70;0.65;;;;;;;;;;5035634;28;20029;-63
2021/08/31 05:33:22;;;;;;;1.15;0.70;;;;;;;;;;5034073;28;20440;-63
2021/08/31 05:35:48;;;;;;;0.52;0.40;;;;;;;;;;5032776;28;20056;-63
2021/08/31 05:38:14;;;;;;;1.05;0.47;;;;;;;;;;5034888;28;20451;-63
2021/08/31 05:40:40;;;;;;;1.95;0.90;;;;;;;;;;5036044;28;20083;-63
2021/08/31 05:43:06;;;;;;;0.43;0.40;;;;;;;;;;5033998;28;20065;-63
2021/08/31 05:45:33;;;;;;;1.85;0.82;;;;;;;;;;5035090;28;20026;-63
2021/08/31 05:47:59;;;;;;;1.60;0.77;;;;;;;;;;5032837;28;20026;-63
2021/08/31 05:50:25;;;;;;;0.77;0.68;;;;;;;;;;5035099;28;20034;-63
2021/08/31 05:52:51;;;;;;;0.90;0.77;;;;;;;;;;5039751;28;20037;-63
2021/08/31 05:55:17;;;;;;;0.93;0.70;;;;;;;;;;5035107;28;20456;-64
2021/08/31 05:57:43;;;;;;;0.90;0.57;;;;;;;;;;5041103;28;20037;-63
2021/08/31 06:00:11;;;;;;;1.13;0.60;;;;;;;;;;5032451;28;20041;-63
2021/08/31 06:02:43;;;;;;;1.65;0.93;;;;;;;;;;5035226;28;20026;-63
2021/08/31 06:05:09;;;;;;;1.30;0.57;;;;;;;;;;5034612;28;20047;-62
2021/08/31 06:07:35;;;;;;;1.08;0.68;;;;;;;;;;5035079;28;20036;-63
2021/08/31 06:10:02;;;;;;;2.50;0.95;;;;;;;;;;5034612;28;20014;-63
2021/08/31 06:12:28;;;;;;;4.57;3.30;;;;;;;;;;5044535;28;20025;-63
2021/08/31 06:14:54;;;;;;;5.57;2.25;;;;;;;;;;5032935;28;20028;-63
2021/08/31 06:17:22;;;;;;;4.72;2.00;;;;;;;;;;5034676;28;20408;-62
2021/08/31 06:19:48;;;;;;;2.83;1.75;;;;;;;;;;5032896;28;20477;-62
2021/08/31 06:22:14;;;;;;;2.50;1.63;;;;;;;;;;5039165;28;20083;-62
2021/08/31 06:24:40;;;;;;;4.88;1.77;;;;;;;;;;5032976;28;20120;-62
2021/08/31 06:27:06;;;;;;;4.00;1.75;;;;;;;;;;5031445;28;20521;-62
2021/08/31 06:29:32;;;;;;;4.22;1.90;;;;;;;;;;5032641;28;20032;-62
2021/08/31 06:31:58;;;;;;;6.40;1.88;;;;;;;;;;5032473;28;20061;-62
2021/08/31 06:34:24;;;;;;;5.30;1.88;;;;;;;;;;5032306;28;20026;-62
2021/08/31 06:36:50;;;;;;;106.97;15.40;;;;;;;;;;5034302;28;20095;-62
2021/08/31 06:39:17;;;;;;;22.10;2.90;;;;;;;;;;5032130;28;20022;-60
2021/08/31 06:41:43;;;;;;;39.08;4.18;;;;;;;;;;5041534;28;20496;-60
2021/08/31 06:44:09;;;;;;;86.82;12.23;;;;;;;;;;5034574;28;20026;-60
2021/08/31 06:46:35;;;;;;;5.28;1.90;;;;;;;;;;5031538;28;20484;-60
2021/08/31 06:49:01;;;;;;;6.65;2.10;;;;;;;;;;5031799;28;20019;-60
2021/08/31 06:51:27;;;;;;;5.30;1.95;;;;;;;;;;5024330;28;20016;-60
2021/08/31 06:53:53;;;;;;;7.88;2.00;;;;;;;;;;5029388;28;20022;-60
2021/08/31 06:56:20;;;;;;;4.47;1.88;;;;;;;;;;5031728;28;20071;-60
2021/08/31 06:58:46;;;;;;;7.40;2.15;;;;;;;;;;5034224;28;20045;-60
2021/08/31 07:01:12;;;;;;;6.38;1.70;;;;;;;;;;5033257;28;20492;-61
2021/08/31 07:03:38;;;;;;;7.18;4.05;;;;;;;;;;5033852;28;20052;-61
2021/08/31 07:06:04;;;;;;;5.40;2.08;;;;;;;;;;5031335;28;20026;-61
2021/08/31 07:08:30;;;;;;;4.88;1.85;;;;;;;;;;5032581;28;20040;-61
2021/08/31 07:10:56;;;;;;;6.72;1.90;;;;;;;;;;5037618;28;20029;-61
2021/08/31 07:13:23;;;;;;;4.22;1.80;;;;;;;;;;5042269;28;20036;-60
2021/08/31 07:15:49;;;;;;;4.15;1.70;;;;;;;;;;5031482;28;20108;-60
2021/08/31 07:18:15;;;;;;;4.22;1.92;;;;;;;;;;5031514;28;20441;-60
2021/08/31 07:20:41;;;;;;;5.20;1.65;;;;;;;;;;5033665;28;20036;-60
2021/08/31 07:23:07;;;;;;;5.70;1.77;;;;;;;;;;5033704;28;20036;-60
2021/08/31 07:25:33;;;;;;;4.88;1.70;;;;;;;;;;5033369;28;20370;-60
2021/08/31 07:27:59;;;;;;;4.13;1.70;;;;;;;;;;5033569;28;20065;-60
2021/08/31 07:30:25;;;;;;;2.92;1.50;;;;;;;;;;5032469;28;20454;-61
2021/08/31 07:32:51;;;;;;;4.78;1.98;;;;;;;;;;5031485;28;20021;-60
2021/08/31 07:35:17;;;;;;;2.88;1.60;;;;;;;;;;5033714;28;20034;-60
2021/08/31 07:37:44;;;;;;;3.05;1.60;;;;;;;;;;5031366;28;20046;-60
2021/08/31 07:40:10;;;;;;;5.03;1.70;;;;;;;;;;5035239;28;20021;-60
2021/08/31 07:42:36;;;;;;;4.43;1.83;;;;;;;;;;5046808;28;20083;-61
2021/08/31 07:45:05;;;;;;;3.70;1.60;;;;;;;;;;5031302;28;20025;-61
2021/08/31 07:47:32;;;;;;;3.63;1.70;;;;;;;;;;5040740;28;20082;-61
2021/08/31 07:49:58;;;;;;;6.32;1.85;;;;;;;;;;5036962;28;20022;-61
2021/08/31 07:52:24;;;;;;;3.85;1.50;;;;;;;;;;5037370;28;20111;-61
2021/08/31 07:54:50;;;;;;;3.00;1.70;;;;;;;;;;5039804;28;20948;-60
2021/08/31 07:57:16;;;;;;;3.45;1.48;;;;;;;;;;5030647;28;20124;-61
2021/08/31 07:59:41;;;;;;;2.75;1.55;;;;;;;;;;5031029;28;20452;-61
2021/08/31 08:02:07;;;;;;;5.60;1.60;;;;;;;;;;5033152;28;20096;-61
2021/08/31 08:04:33;;;;;;;5.75;1.90;;;;;;;;;;5033183;28;20026;-60
2021/08/31 08:06:59;;;;;;;4.40;1.60;;;;;;;;;;5033138;28;20057;-61
2021/08/31 08:09:25;;;;;;;4.97;1.88;;;;;;;;;;5031536;28;20025;-61
2021/08/31 08:11:51;;;;;;;3.85;1.63;;;;;;;;;;5043582;28;20040;-61
2021/08/31 08:14:17;;;;;;;2.28;1.30;;;;;;;;;;5033669;28;20503;-60
2021/08/31 08:16:43;;;;;;;2.20;1.13;;;;;;;;;;5031658;28;20037;-60
2021/08/31 08:19:09;;;;;;;3.90;1.70;;;;;;;;;;5033133;28;20397;-60
2021/08/31 08:21:36;;;;;;;2.33;1.40;;;;;;;;;;5045446;28;20033;-61
2021/08/31 08:24:02;;;;;;;2.95;1.63;;;;;;;;;;5030400;28;20036;-61
2021/08/31 08:26:28;;;;;;;3.67;1.40;;;;;;;;;;5032744;28;20053;-61
2021/08/31 08:28:54;;;;;;;3.13;1.63;;;;;;;;;;5035795;28;20091;-61
2021/08/31 08:31:20;;;;;;;4.40;1.42;;;;;;;;;;5036671;28;20026;-61
2021/08/31 08:33:46;;;;;;;2.97;1.50;;;;;;;;;;5036952;28;20079;-61
2021/08/31 08:36:12;;;;;;;4.68;1.50;;;;;;;;;;5034420;28;20021;-61
2021/08/31 08:38:38;;;;;;;2.47;1.38;;;;;;;;;;5036444;28;20029;-61
2021/08/31 08:41:05;;;;;;;3.55;1.23;;;;;;;;;;5041983;28;20055;-61
2021/08/31 08:43:32;;;;;;;3.47;1.50;;;;;;;;;;5043697;28;20465;-61
2021/08/31 08:46:01;;;;;;;3.20;1.83;;;;;;;;;;5036564;28;20037;-61
2021/08/31 08:48:27;;;;;;;4.30;1.38;;;;;;;;;;5033898;28;20090;-61
2021/08/31 08:50:55;;;;;;;2.70;1.52;;;;;;;;;;5038271;28;20012;-63
2021/08/31 08:53:21;;;;;;;2.20;1.20;;;;;;;;;;5036882;28;20461;-61
2021/08/31 08:55:47;;;;;;;12.10;2.05;;;;;;;;;;5034719;28;20032;-61
2021/08/31 08:58:13;;;;;;;4.07;1.50;;;;;;;;;;5036135;28;20163;-61
2021/08/31 09:01:11;;;;;;;2.92;1.42;;;;;;;;;;5035988;28;20036;-61
2021/08/31 09:03:38;;;;;;;2.42;1.45;;;;;;;;;;5013267;28;20033;-61
2021/08/31 09:06:08;;;;;;;3.03;1.58;;;;;;;;;;5033353;28;20021;-61
2021/08/31 09:08:34;;;;;;;6.05;1.20;;;;;;;;;;5035112;28;20102;-63
2021/08/31 09:11:16;;;;;;;61.13;3.17;;;;;;;;;;5041237;28;20060;-64
2021/08/31 09:13:42;;;;;;;8.82;1.50;;;;;;;;;;5041860;28;20037;-64
2021/08/31 09:16:20;;;;;;;10.63;1.67;;;;;;;;;;5035348;28;20029;-64
2021/08/31 09:18:51;;;;;;;7.30;1.88;;;;;;;;;;5035829;28;20044;-64
2021/08/31 09:21:20;;;;;;;2.78;1.23;;;;;;;;;;5038911;28;20020;-64
2021/08/31 09:23:49;;;;;;;10.80;1.65;;;;;;;;;;5034804;28;20029;-64
2021/08/31 09:26:18;;;;;;;2.35;1.50;;;;;;;;;;5035702;28;20041;-64
2021/08/31 09:28:44;;;;;;;3.05;1.70;;;;;;;;;;5034025;28;20028;-64
2021/08/31 09:31:18;;;;;;;4.22;1.60;;;;;;;;;;5035301;28;20072;-64
2021/08/31 09:33:46;;;;;;;5.55;1.75;;;;;;;;;;5032532;28;20030;-64
2021/08/31 09:36:19;;;;;;;2.75;1.48;;;;;;;;;;5033674;28;20054;-63
2021/08/31 09:38:52;;;;;;;6.22;1.55;;;;;;;;;;5031850;28;20034;-64
2021/08/31 09:41:32;;;;;;;2.58;1.50;;;;;;;;;;5042873;28;20013;-64
2021/08/31 09:44:06;;;;;;;6.10;1.67;;;;;;;;;;5038918;28;20166;-63
2021/08/31 09:46:45;;;;;;;2.67;1.42;;;;;;;;;;5035625;28;20033;-63
2021/08/31 09:49:21;;;;;;;3.72;1.60;;;;;;;;;;5035195;28;20025;-63
2021/08/31 09:52:00;;;;;;;3.22;1.60;;;;;;;;;;5040027;28;20024;-63
2021/08/31 09:54:26;;;;;;;3.17;1.30;;;;;;;;;;5033405;28;20040;-63
2021/08/31 09:56:52;;;;;;;3.67;1.60;;;;;;;;;;5033365;28;20037;-60
2021/08/31 09:59:18;;;;;;;3.75;1.90;;;;;;;;;;5035431;28;20025;-60
2021/08/31 10:01:44;;;;;;;3.63;1.60;;;;;;;;;;5034457;28;20036;-60
2021/08/31 10:04:10;;;;;;;2.90;1.50;;;;;;;;;;5034878;28;20491;-60
2021/08/31 10:06:38;;;;;;;8.70;1.92;;;;;;;;;;5033616;28;20036;-60
2021/08/31 10:09:04;;;;;;;3.40;1.60;;;;;;;;;;5033136;28;20072;-60
2021/08/31 10:11:31;;;;;;;4.22;1.65;;;;;;;;;;5043634;28;20488;-60
2021/08/31 10:13:57;;;;;;;3.08;1.52;;;;;;;;;;5037152;28;20038;-60
2021/08/31 10:16:24;;;;;;;3.67;1.60;;;;;;;;;;5034664;28;20056;-60
2021/08/31 10:18:50;;;;;;;3.95;1.67;;;;;;;;;;5034892;28;20167;-61
2021/08/31 10:21:16;;;;;;;3.10;1.60;;;;;;;;;;5037812;28;20460;-69
2021/08/31 10:23:45;;;;;;;4.72;1.75;;;;;;;;;;5034380;28;20026;-69
2021/08/31 10:26:20;;;;;;;2.55;1.50;;;;;;;;;;5034630;28;20092;-71
2021/08/31 10:28:46;;;;;;;3.70;1.70;;;;;;;;;;5034391;28;20460;-68
2021/08/31 10:31:27;;;;;;;3.58;1.77;;;;;;;;;;5034192;28;20053;-69
2021/08/31 10:33:53;;;;;;;41.15;3.63;;;;;;;;;;5033450;28;20034;-67
2021/08/31 10:36:34;;;;;;;3.08;1.40;;;;;;;;;;5025661;28;20033;-68
2021/08/31 10:39:20;;;;;;;1.92;1.30;;;;;;;;;;5021971;28;20069;-68
2021/08/31 10:41:46;;;;;;;5.68;1.80;;;;;;;;;;5041109;28;20072;-68
2021/08/31 10:44:32;;;;;;;2.28;1.25;;;;;;;;;;5034401;28;20029;-68
2021/08/31 10:46:58;;;;;;;4.18;1.77;;;;;;;;;;5032899;28;20099;-67
2021/08/31 10:49:24;;;;;;;2.58;1.40;;;;;;;;;;5010867;28;20040;-68
2021/08/31 10:52:02;;;;;;;2.97;1.52;;;;;;;;;;5035734;28;20065;-68
2021/08/31 10:54:48;;;;;;;3.25;1.17;;;;;;;;;;5016735;28;20032;-68
2021/08/31 10:57:32;;;;;;;3.65;1.52;;;;;;;;;;5041353;28;20551;-68
2021/08/31 10:59:58;;;;;;;2.60;1.48;;;;;;;;;;5022344;28;20033;-68
2021/08/31 11:03:00;;;;;;;3.10;1.50;;;;;;;;;;5030580;28;20032;-68
2021/08/31 11:05:30;;;;;;;3.42;1.70;;;;;;;;;;5011508;28;20468;-68
2021/08/31 11:08:01;;;;;;;3.85;1.50;;;;;;;;;;5043236;28;20036;-68
2021/08/31 11:10:29;;;;;;;4.40;1.63;;;;;;;;;;5042278;28;20104;-68
2021/08/31 11:12:55;;;;;;;2.90;1.65;;;;;;;;;;5045805;28;20109;-72
2021/08/31 11:15:22;;;;;;;3.17;1.50;;;;;;;;;;5032452;28;20021;-69
2021/08/31 11:17:50;;;;;;;5.88;1.67;;;;;;;;;;5032733;28;20034;-69
2021/08/31 11:20:23;;;;;;;4.32;1.83;;;;;;;;;;5033399;28;20053;-69
2021/08/31 11:22:52;;;;;;;4.38;1.55;;;;;;;;;;5038055;28;20021;-68
2021/08/31 11:25:26;;;;;;;2.85;1.45;;;;;;;;;;5032103;28;20064;-68
2021/08/31 11:28:04;;;;;;;3.42;1.50;;;;;;;;;;5032022;28;20045;-68
2021/08/31 11:30:45;;;;;;;2.60;1.40;;;;;;;;;;5032628;28;20480;-68
2021/08/31 11:33:21;;;;;;;4.30;1.67;;;;;;;;;;5029176;28;20020;-69
2021/08/31 11:35:48;;;;;;;2.87;1.70;;;;;;;;;;5030459;28;20026;-68
2021/08/31 11:38:14;;;;;;;2.50;1.60;;;;;;;;;;5033459;28;20052;-68
2021/08/31 11:40:42;;;;;;;6.55;1.77;;;;;;;;;;5036099;28;20036;-69
2021/08/31 11:43:08;;;;;;;2.90;1.85;;;;;;;;;;5041686;28;20032;-68
2021/08/31 11:45:39;;;;;;;2.35;1.60;;;;;;;;;;5033594;28;20032;-68
2021/08/31 11:48:06;;;;;;;3.63;1.95;;;;;;;;;;5031254;28;20034;-68
2021/08/31 11:50:32;;;;;;;2.58;1.80;;;;;;;;;;5033692;28;20049;-68
2021/08/31 11:53:12;;;;;;;2.80;1.70;;;;;;;;;;5035617;28;20060;-68
2021/08/31 11:55:38;;;;;;;4.22;1.55;;;;;;;;;;5032787;28;20393;-68
2021/08/31 11:58:05;;;;;;;5.43;2.40;;;;;;;;;;5033123;28;20033;-70
2021/08/31 12:00:41;;;;;;;2.78;1.80;;;;;;;;;;5032175;28;20028;-68
2021/08/31 12:03:23;;;;;;;5.75;2.10;;;;;;;;;;5034041;28;20029;-68
2021/08/31 12:05:52;;;;;;;6.95;1.80;;;;;;;;;;5034414;28;20021;-68
2021/08/31 12:08:18;;;;;;;3.92;2.13;;;;;;;;;;5036900;28;20397;-68
2021/08/31 12:10:44;;;;;;;4.97;2.30;;;;;;;;;;5038206;28;20032;-68
2021/08/31 12:13:10;;;;;;;5.95;2.30;;;;;;;;;;5047024;28;20500;-68
2021/08/31 12:15:37;;;;;;;5.47;2.10;;;;;;;;;;5037225;28;20036;-68
2021/08/31 12:18:04;;;;;;;4.25;2.30;;;;;;;;;;5034711;28;20038;-68
2021/08/31 12:20:30;;;;;;;4.93;2.17;;;;;;;;;;5038176;28;20025;-68
2021/08/31 12:23:01;;;;;;;3.30;2.13;;;;;;;;;;5040012;28;20095;-68
2021/08/31 12:25:27;;;;;;;5.25;2.20;;;;;;;;;;5036934;28;20048;-68
2021/08/31 12:28:04;;;;;;;7.85;2.60;;;;;;;;;;5042355;28;20046;-68
2021/08/31 12:30:37;;;;;;;5.28;2.20;;;;;;;;;;5020247;28;20082;-68
2021/08/31 12:33:04;;;;;;;3.38;1.98;;;;;;;;;;5030541;28;20022;-68
2021/08/31 12:35:36;;;;;;;3.35;2.08;;;;;;;;;;5033891;28;20026;-69
2021/08/31 12:38:06;;;;;;;4.63;2.15;;;;;;;;;;5035891;28;20045;-68
2021/08/31 12:40:35;;;;;;;3.58;2.22;;;;;;;;;;5036475;28;20030;-68
2021/08/31 12:43:06;;;;;;;7.85;2.55;;;;;;;;;;5035784;28;20099;-68
2021/08/31 12:45:33;;;;;;;3.70;2.20;;;;;;;;;;5035476;28;20034;-68
2021/08/31 12:48:00;;;;;;;6.03;2.47;;;;;;;;;;5033902;28;20025;-68
2021/08/31 12:50:26;;;;;;;5.03;2.25;;;;;;;;;;5035906;28;20033;-68
2021/08/31 12:53:03;;;;;;;4.43;2.00;;;;;;;;;;5036031;28;20038;-68
2021/08/31 12:55:30;;;;;;;3.57;1.97;;;;;;;;;;5035586;28;20043;-69
2021/08/31 12:58:16;;;;;;;5.18;3.00;;;;;;;;;;5034898;28;20116;-68
2021/08/31 13:00:42;;;;;;;6.75;2.42;;;;;;;;;;5034348;28;21238;-68
2021/08/31 13:03:08;;;;;;;4.43;2.22;;;;;;;;;;5033355;28;20022;-68
2021/08/31 13:05:34;;;;;;;5.00;2.88;;;;;;;;;;5035624;28;20018;-68
2021/08/31 13:08:04;;;;;;;11.68;3.03;;;;;;;;;;5035593;28;20436;-68
2021/08/31 13:10:30;;;;;;;5.95;2.40;;;;;;;;;;5035475;28;20057;-68
2021/08/31 13:12:56;;;;;;;6.70;2.67;;;;;;;;;;5034692;28;20079;-68
2021/08/31 13:15:22;;;;;;;6.13;2.50;;;;;;;;;;5033969;28;20031;-68
2021/08/31 13:17:48;;;;;;;6.07;2.90;;;;;;;;;;5033616;28;20081;-71
2021/08/31 13:20:15;;;;;;;5.93;2.50;;;;;;;;;;5034178;28;20033;-70
2021/08/31 13:22:41;;;;;;;5.07;2.70;;;;;;;;;;5035241;28;20033;-71
2021/08/31 13:25:08;;;;;;;7.72;2.72;;;;;;;;;;5034328;28;20104;-71
2021/08/31 13:27:34;;;;;;;5.90;2.67;;;;;;;;;;5030026;28;20053;-69
2021/08/31 13:30:00;;;;;;;7.93;3.05;;;;;;;;;;5032681;28;20021;-69
2021/08/31 13:32:26;;;;;;;4.72;2.65;;;;;;;;;;5034732;28;20477;-69
2021/08/31 13:34:52;;;;;;;5.13;2.50;;;;;;;;;;5034483;28;20032;-70
2021/08/31 13:37:18;;;;;;;7.65;3.15;;;;;;;;;;5034329;28;20072;-69
2021/08/31 13:39:44;;;;;;;4.93;2.60;;;;;;;;;;5034866;28;20079;-69
2021/08/31 13:42:10;;;;;;;7.13;2.95;;;;;;;;;;5046246;28;20379;-70
2021/08/31 13:44:37;;;;;;;5.38;2.78;;;;;;;;;;5034629;28;20037;-70
2021/08/31 13:47:03;;;;;;;7.05;3.47;;;;;;;;;;5035291;28;20546;-70
2021/08/31 13:49:29;;;;;;;5.72;3.30;;;;;;;;;;5033856;28;20038;-70
2021/08/31 13:51:57;;;;;;;5.82;3.20;;;;;;;;;;5040073;28;20021;-70
2021/08/31 13:54:23;;;;;;;4.28;3.05;;;;;;;;;;5031333;28;20052;-70
2021/08/31 13:56:49;;;;;;;6.97;3.10;;;;;;;;;;5032804;28;20481;-70
2021/08/31 13:59:15;;;;;;;7.18;3.30;;;;;;;;;;5033370;28;20104;-70
2021/08/31 14:01:41;;;;;;;5.35;3.30;;;;;;;;;;5034636;28;20033;-70
2021/08/31 14:04:07;;;;;;;5.05;3.13;;;;;;;;;;5034252;28;20092;-70
2021/08/31 14:06:33;;;;;;;5.38;2.88;;;;;;;;;;5035087;28;20034;-70
2021/08/31 14:08:59;;;;;;;7.97;3.30;;;;;;;;;;5032631;28;20060;-70
2021/08/31 14:11:26;;;;;;;8.50;3.22;;;;;;;;;;5041654;28;20728;-70
2021/08/31 14:13:52;;;;;;;6.22;3.05;;;;;;;;;;5039262;28;20048;-70
2021/08/31 14:16:18;;;;;;;10.55;3.05;;;;;;;;;;5033081;28;20037;-69
2021/08/31 14:18:45;;;;;;;5.95;3.17;;;;;;;;;;5032709;28;20030;-70
2021/08/31 14:21:11;;;;;;;5.13;2.67;;;;;;;;;;5036388;28;20365;-70
2021/08/31 14:23:38;;;;;;;8.05;3.10;;;;;;;;;;5030580;28;20084;-70
2021/08/31 14:26:04;;;;;;;7.05;3.08;;;;;;;;;;5033603;28;20017;-69
2021/08/31 14:28:30;;;;;;;7.65;3.10;;;;;;;;;;5032818;28;20033;-69
2021/08/31 14:30:56;;;;;;;6.13;2.63;;;;;;;;;;5034311;28;20026;-69
2021/08/31 14:33:22;;;;;;;7.88;3.30;;;;;;;;;;5047092;28;20074;-70
2021/08/31 14:35:48;;;;;;;8.38;3.38;;;;;;;;;;5032167;28;20037;-70
2021/08/31 14:38:14;;;;;;;9.90;3.10;;;;;;;;;;5032267;28;20049;-70
2021/08/31 14:40:40;;;;;;;6.18;3.10;;;;;;;;;;5035106;28;20033;-70
2021/08/31 14:43:06;;;;;;;9.13;3.30;;;;;;;;;;5044945;28;20036;-70
2021/08/31 14:45:32;;;;;;;18.05;4.55;;;;;;;;;;5031884;28;20057;-70